Terminal Aerodrome Forecast
Issued by NWS

Current Version | Previous Version | Text Only | Print | Product List | Glossary On
Versions: 1 2 3 4 5 6 7 8 9 10 11 12 13 14 15
000
FTUS43 KDTX 171721
TAFPTK
TAF
KPTK 171721Z 1718/1818 19011KT 4SM SHRA VCTS BKN016 OVC040CB
     FM172100 21012KT P6SM BKN028 BKN150
     FM180000 22008KT P6SM SCT030 BKN045
     FM180800 24010KT P6SM OVC018
     FM181500 25013G24KT P6SM BKN028=

USA.gov is the U.S. government's official web portal to all federal, state and local government web resources and services.